Latest Coastal Weather Observations for Williamtown

IDN60701

Issued at 4:31 am EST Tuesday 28 April 2015 (issued every 10 minutes, with the page automatically refreshed every 10 minutes)

About coastal observations | Map of coastal stations | Coastal observations for NSW | Marine services | Other Formats
Station Details ID: 061078 Name: WILLIAMTOWN RAAF Lat: -32.79 Lon: 151.84 Height: 9.0 m
Data from the previous 72 hours. | See also: Recent months at Williamtown
Date/Time
EST
Temp

°C
Wind Pressure Rain
since 9am
mm
Weather Cloud Vis
km
Sea
Height
m
Swell
Dir
 
Speed
knots
Gust
knots
hPa Trend Height
m
Period
s
Dir
28/04:00am 11.7 WNW 9 10 1022.2 - 0.0 - Partly cloudy 10 - - - -
28/03:30am 11.6 WNW 9 11 1022.0 - 0.0 - Partly cloudy 10 - - - -
28/03:00am 11.2 WNW 8 9 1022.0 - 0.0 - Cloudy 10 - - - -
28/02:30am 10.6 WNW 8 9 1021.9 - 0.0 - Partly cloudy 10 - - - -
28/02:00am 9.9 NW 5 7 1022.0 - 0.0 - - 10 - - - -
28/01:30am 10.4 NW 6 6 1022.0 - 0.0 - - 10 - - - -
28/01:00am 10.5 NW 6 7 1021.9 - 0.0 - - 10 - - - -
28/12:30am 10.7 CALM 0 0 1022.0 - 0.0 - - 10 - - - -
28/12:00am 11.0 NW 7 9 1022.1 - 0.0 - - 10 - - - -
 
Date/Time
EST
Temp

°C
Wind Pressure Rain
since 9am
mm
Weather Cloud Vis
km
Sea
Height
m
Swell
Dir
 
Speed
knots
Gust
knots
hPa Trend Height
m
Period
s
Dir
27/11:30pm 11.0 NW 7 7 1022.1 - 0.0 - - 10 - - - -
27/11:00pm 11.2 NW 6 7 1022.1 - 0.0 - Partly cloudy 10 - - - -
27/10:30pm 11.2 NW 4 5 1022.2 - 0.0 - Partly cloudy 10 - - - -
27/10:00pm 11.4 NW 6 7 1022.2 - 0.0 - Partly cloudy 10 - - - -
27/09:30pm 11.4 WNW 4 5 1022.1 - 0.0 - Partly cloudy 10 - - - -
27/09:00pm 11.6 WNW 5 6 1021.9 - 0.0 - Partly cloudy 10 - - - -
27/08:30pm 11.4 NW 5 6 1021.6 - 0.0 - - 10 - - - -
27/08:00pm 11.3 W 3 4 1021.3 - 0.0 - - 10 - - - -
27/07:30pm 13.2 SSW 5 6 1021.0 - 0.0 - - 10 - - - -
27/07:00pm 13.4 SSW 6 7 1020.7 - 0.0 - - 10 - - - -
27/06:30pm 14.3 SSW 5 8 1020.3 - 0.0 - - 10 - - - -
27/06:00pm 14.7 SSW 6 7 1019.8 - 0.0 - - 10 - - - -
27/05:30pm 15.5 S 8 9 1019.5 - 0.0 - Mostly clear 10 - - - -
27/05:00pm 16.6 S 9 12 1019.2 - 0.0 - Mostly clear 10 - - - -
27/04:30pm 17.5 S 10 13 1018.9 - 0.0 - Mostly clear 10 - - - -
27/04:00pm 18.1 S 11 14 1018.7 - 0.0 - Mostly clear 10 - - - -
27/03:30pm 18.5 S 12 16 1018.6 - 0.0 - Mostly clear 10 - - - -
27/03:00pm 18.9 S 13 16 1018.4 R 0.0 Fine Mostly clear 40 - - - -
27/02:30pm 18.9 S 11 15 1018.3 - 0.0 - Mostly clear 10 - - - -
27/02:00pm 19.1 WSW 6 10 1018.2 - 0.0 - Mostly clear 10 - - - -
27/01:30pm 19.6 WSW 10 13 1018.1 - 0.0 - Partly cloudy 10 - - - -
27/01:00pm 18.6 WSW 7 11 1018.3 - 0.0 - Partly cloudy 10 - - - -
27/12:30pm 19.2 W 9 14 1018.3 - 0.0 - Partly cloudy 10 - - - -
27/12:00pm 19.4 W 9 15 1018.6 R 0.0 Fine Partly cloudy 40 - - - -
27/11:30am 18.2 W 9 16 1019.0 - 0.0 - Partly cloudy 10 - - - -
27/11:00am 18.1 W 10 17 1019.2 - 0.0 - Mostly clear 10 - - - -
27/10:30am 18.0 WNW 10 15 1019.3 - 0.0 - Mostly clear 10 - - - -
27/10:00am 17.5 WNW 13 17 1019.3 - 0.0 - Mostly clear 10 - - - -
27/09:30am 17.0 W 12 16 1019.2 - 0.0 - - 10 - - - -
27/09:00am 16.3 WNW 14 18 1019.1 R 0.2 Fine Mostly clear 40 - - - -
27/08:30am 15.5 WNW 13 19 1018.9 - 0.2 - Mostly clear 10 - - - -
27/08:00am 14.7 WNW 12 16 1018.6 - 0.2 - Mostly clear 10 - - - -
27/07:30am 13.9 WNW 11 15 1018.3 - 0.2 - Mostly clear 10 - - - -
27/07:00am 13.2 WNW 12 16 1018.0 - 0.2 - Mostly clear 10 - - - -
27/06:30am 12.6 WNW 12 16 1017.5 - 0.2 - Mostly clear 10 - - - -
27/06:00am 12.8 WNW 11 15 1017.2 R 0.2 Fine Mostly clear 40 - - - -
27/05:30am 13.1 WNW 10 14 1016.9 - 0.2 - Partly cloudy 10 - - - -
27/05:00am 12.7 WNW 9 11 1016.6 - 0.2 - Partly cloudy 10 - - - -
27/04:30am 12.9 WNW 9 12 1016.3 - 0.2 - Partly cloudy 10 - - - -
27/04:00am 13.0 WNW 8 11 1016.1 - 0.2 - Partly cloudy 10 - - - -
27/03:30am 13.3 WNW 11 14 1015.6 - 0.2 - Partly cloudy 10 - - - -
27/03:00am 13.6 WNW 13 18 1015.3 - 0.2 - Mostly clear 10 - - - -
27/02:30am 13.6 WNW 12 15 1015.2 - 0.2 - - 10 - - - -
27/02:00am 13.9 WNW 14 18 1015.1 - 0.2 - Partly cloudy 10 - - - -
27/01:30am 14.0 WNW 13 17 1015.1 - 0.2 - Partly cloudy 10 - - - -
27/01:00am 13.7 WNW 12 17 1015.0 - 0.2 - - 10 - - - -
27/12:30am 13.8 WNW 12 16 1015.1 - 0.2 - - 10 - - - -
27/12:00am 13.8 WNW 13 15 1015.2 - 0.2 - Mostly clear 10 - - - -
 
Date/Time
EST
Temp

°C
Wind Pressure Rain
since 9am
mm
Weather Cloud Vis
km
Sea
Height
m
Swell
Dir
 
Speed
knots
Gust
knots
hPa Trend Height
m
Period
s
Dir
26/11:30pm 14.0 WNW 13 17 1015.3 - 0.2 - - 10 - - - -
26/11:00pm 14.2 WNW 14 18 1015.3 - 0.2 - - 10 - - - -
26/10:30pm 14.6 WNW 14 18 1015.3 - 0.2 - - 10 - - - -
26/10:00pm 14.6 WNW 11 15 1015.2 - 0.2 - Partly cloudy 10 - - - -
26/09:30pm 15.6 WNW 11 14 1015.1 - 0.2 - Partly cloudy 10 - - - -
26/09:00pm 15.4 W 9 12 1014.9 - 0.2 - Mostly clear 10 - - - -
26/08:30pm 16.5 W 9 11 1014.7 - 0.2 - Cloudy 10 - - - -
26/08:00pm 16.8 W 10 14 1014.4 - 0.2 - Cloudy 10 - - - -
26/07:30pm 17.0 WSW 11 18 1014.1 - 0.2 - Partly cloudy 10 - - - -
26/07:00pm 16.4 W 7 10 1013.6 - 0.2 - Partly cloudy 10 - - - -
26/06:30pm 16.2 W 8 11 1013.0 - 0.2 - Partly cloudy 10 - - - -
26/06:00pm 16.6 WSW 9 16 1012.5 - 0.2 - Partly cloudy 10 - - - -
26/05:30pm 17.0 W 9 13 1012.2 - 0.2 - Partly cloudy 10 - - - -
26/05:00pm 17.9 WSW 15 22 1011.5 - 0.2 - Cloudy 10 - - - -
26/04:36pm 17.6 WSW 16 26 1011.0 - 0.2 - Partly cloudy 10 - - - -
26/04:30pm 17.6 WSW 18 26 1011.0 - 0.2 - Partly cloudy 10 - - - -
26/04:00pm 18.2 WSW 13 18 1010.4 - 0.2 - Partly cloudy 10 - - - -
26/03:30pm 18.7 WSW 16 21 1010.0 - 0.2 - Partly cloudy 10 - - - -
26/03:00pm 18.0 WSW 15 19 1009.6 R 0.2 Recent precip. Mostly cloudy 40 - - - -
26/02:30pm 17.5 W 14 22 1009.1 - 0.2 - Partly cloudy 10 - - - -
26/02:00pm 17.8 W 16 24 1008.5 - 0.2 - Mostly clear 10 - - - -
26/01:30pm 16.4 W 11 16 1008.4 - 0.2 - Mostly clear 10 - - - -
26/01:00pm 17.7 W 13 20 1008.0 - 0.0 - Mostly clear 10 - - - -
26/12:30pm 17.9 W 13 19 1007.7 - 0.0 - Mostly clear 10 - - - -
26/12:00pm 17.3 WNW 17 21 1007.8 R 0.0 Fine Cloudy 40 - - - -
26/11:30am 17.3 WNW 18 24 1008.0 - 0.0 - Mostly clear 10 - - - -
26/11:00am 16.6 WNW 17 23 1008.1 - 0.0 - Mostly clear 10 - - - -
26/10:30am 16.2 WNW 17 23 1008.6 - 0.0 - Mostly clear 10 - - - -
26/10:00am 15.3 WNW 18 24 1008.5 - 0.0 - Mostly clear 10 - - - -
26/09:30am 14.9 WNW 19 26 1008.4 - 0.0 - Mostly clear 10 - - - -
26/09:00am 14.4 WNW 18 25 1008.5 F 0.0 Fine Mostly cloudy 40 - - - -
26/08:30am 14.0 WNW 17 26 1008.7 - 0.0 - Mostly clear 10 - - - -
26/08:00am 13.7 WNW 19 25 1008.6 - 0.0 - Mostly clear 10 - - - -
26/07:30am 13.6 WNW 18 26 1008.1 - 0.0 - Mostly clear 10 - - - -
26/07:00am 13.5 WNW 18 24 1007.4 - 0.0 - Mostly clear 10 - - - -
26/06:30am 12.8 WNW 17 23 1007.4 - 0.0 - Mostly clear 10 - - - -
26/06:00am 12.7 WNW 14 20 1007.2 F 0.0 Fine Mostly clear 40 - - - -
26/05:30am 12.8 WNW 13 18 1006.8 - 0.0 - - 10 - - - -
26/05:00am 12.8 NW 13 16 1006.4 - 0.0 - - 10 - - - -
26/04:30am 13.1 WNW 15 21 1006.8 - 0.0 - Partly cloudy 10 - - - -
26/04:00am 13.5 WNW 17 21 1007.0 - 0.0 - Partly cloudy 10 - - - -
26/03:30am 13.6 WNW 12 16 1006.6 - 0.0 - - 10 - - - -
26/03:00am 14.0 WNW 9 14 1006.8 - 0.0 - Mostly cloudy 10 - - - -
26/02:30am 14.1 WSW 5 7 1007.0 - 0.0 - Partly cloudy 10 - - - -
26/02:00am 14.6 W 9 12 1007.0 - 0.0 - Partly cloudy 10 - - - -
26/01:30am 14.6 NW 8 9 1007.1 - 0.0 - Partly cloudy 10 - - - -
26/01:00am 13.6 NW 8 9 1007.0 - 0.0 - Partly cloudy 10 - - - -
26/12:30am 13.9 WNW 5 6 1007.1 - 0.0 - Partly cloudy 10 - - - -
26/12:00am 14.9 WSW 7 9 1007.3 - 0.0 - Mostly clear 10 - - - -
 
Date/Time
EST
Temp

°C
Wind Pressure Rain
since 9am
mm
Weather Cloud Vis
km
Sea
Height
m
Swell
Dir
 
Speed
knots
Gust
knots
hPa Trend Height
m
Period
s
Dir
25/11:30pm 15.3 SW 10 14 1007.2 - 0.0 - - 10 - - - -
25/11:00pm 15.4 WSW 7 10 1007.2 - 0.0 - Partly cloudy 10 - - - -
25/10:30pm 15.3 WSW 11 16 1007.0 - 0.0 - Partly cloudy 10 - - - -
25/10:00pm 15.6 WNW 4 5 1006.2 - 0.0 - Partly cloudy 10 - - - -
25/09:30pm 16.6 WSW 7 10 1006.7 - 0.0 - Partly cloudy 10 - - - -
25/09:00pm 18.3 N 12 30 1006.6 - 0.0 - Mostly cloudy 10 - - - -
25/08:59pm 18.1 N 11 30 1007.0 - 0.0 - Partly cloudy 10 - - - -
25/08:57pm 17.0 NNE 9 29 1007.0 - 0.0 - Partly cloudy 10 - - - -
25/08:30pm 17.7 NE 8 10 1005.6 - 0.0 - - 10 - - - -
25/08:00pm 18.4 NE 7 9 1005.6 - 0.0 - Partly cloudy 10 - - - -
25/07:30pm 19.0 ENE 6 8 1005.6 - 0.0 - - 10 - - - -
25/07:00pm 20.2 NW 8 17 1006.2 - 0.0 - Partly cloudy 10 - - - -
25/06:47pm 20.2 WNW 12 29 1006.1 - 0.0 - Partly cloudy 10 - - - -
25/06:30pm 19.6 ENE 7 9 1005.0 - 0.0 - Partly cloudy 10 - - - -
25/06:00pm 19.3 ENE 7 9 1005.0 - 0.0 - Partly cloudy 10 - - - -
25/05:30pm 20.0 ENE 7 9 1005.0 - 0.0 - - 10 - - - -
25/05:00pm 21.1 ENE 8 12 1005.0 - 0.0 - - 10 - - - -
25/04:30pm 22.7 E 9 12 1004.7 - 0.0 - - 10 - - - -
25/04:00pm 24.2 NNE 4 6 1004.9 - 0.0 - - 10 - - - -
25/03:30pm 24.4 N 6 8 1005.0 - 0.0 - - 10 - - - -
25/03:00pm 24.6 N 6 8 1005.2 - 0.0 - - 10 - - - -
25/02:30pm 24.7 N 5 7 1005.5 - 0.0 - - 10 - - - -
25/02:00pm 24.3 NW 6 10 1005.8 - 0.0 - - 10 - - - -
25/01:30pm 24.8 WNW 9 11 1006.1 - 0.0 - - 10 - - - -
25/01:00pm 24.4 NW 7 11 1006.3 - 0.0 - Mostly clear 10 - - - -
25/12:30pm 24.1 NW 8 13 1006.8 - 0.0 - Mostly clear 10 - - - -
25/12:00pm 23.9 WNW 8 12 1007.2 - 0.0 - Mostly clear 10 - - - -
25/11:30am 23.2 WNW 7 10 1008.0 - 0.0 - Mostly clear 10 - - - -
25/11:00am 22.8 WNW 9 12 1008.4 - 0.0 - - 10 - - - -
25/10:30am 22.2 WNW 9 12 1008.8 - 0.0 - - 10 - - - -
25/10:00am 21.6 WNW 11 14 1009.1 - 0.0 - - 10 - - - -
25/09:30am 21.1 WNW 10 12 1009.2 - 0.0 - - 10 - - - -
25/09:00am 20.3 NW 12 14 1009.3 - 0.0 - Mostly clear 10 - - - -
25/08:30am 19.3 WNW 14 17 1009.2 - 0.0 - - 10 - - - -
25/08:00am 18.3 NW 10 15 1009.1 - 0.0 - - 10 - - - -
25/07:30am 17.1 W 7 10 1008.8 - 0.0 - - 10 - - - -
25/07:00am 14.7 W 3 8 1008.5 - 0.0 - - 10 - - - -
25/06:30am 14.6 SSE 3 4 1008.3 - 0.0 - - 10 - - - -
25/06:00am 15.9 NW 11 14 1008.0 - 0.0 - Mostly cloudy 10 - - - -
25/05:30am 15.5 WNW 9 12 1007.8 - 0.0 - - 10 - - - -
25/05:00am 14.5 WNW 6 9 1007.6 - 0.0 - - 10 - - - -

Other Formats:

Comma delimited format used in spreadsheet applications
http://www.bom.gov.au/fwo/IDN60701/IDN60701.94776.axf

JavaScript Object Notation format (JSON) in row-major order
http://www.bom.gov.au/fwo/IDN60701/IDN60701.94776.json